Terminal Aerodrome Forecast
Issued by NWS

Home | Current Version | Previous Version | Graphics & Text | Print | Product List | Glossary On
Versions: 1 2 3 4 5 6 7 8 9 10 11 12 13 14 15 16 17 18 19 20
000
FTUS43 KOAX 251725
TAFCDR
TAF
KCDR 251725Z 2518/2618 29015G25KT P6SM OVC100
     FM252300 30015KT P6SM VCSH SCT015 OVC035
     FM260700 32010KT P6SM SCT035 OVC100=

USA.gov is the U.S. government's official web portal to all federal, state and local government web resources and services.